sensor_id;sensor_type;location;lat;lon;timestamp;temperature;humidity
20428;DHT22;10373;49.768;18.302;2022-08-27T00:00:23;20.30;99.90
20428;DHT22;10373;49.768;18.302;2022-08-27T00:02:49;20.00;99.90
20428;DHT22;10373;49.768;18.302;2022-08-27T00:05:16;20.00;99.90
20428;DHT22;10373;49.768;18.302;2022-08-27T00:07:43;20.10;99.90
20428;DHT22;10373;49.768;18.302;2022-08-27T00:10:13;20.10;99.90
20428;DHT22;10373;49.768;18.302;2022-08-27T00:12:39;20.20;99.90
20428;DHT22;10373;49.768;18.302;2022-08-27T00:15:07;20.20;99.90
20428;DHT22;10373;49.768;18.302;2022-08-27T00:17:33;20.20;99.90
20428;DHT22;10373;49.768;18.302;2022-08-27T00:20:00;20.30;99.90
20428;DHT22;10373;49.768;18.302;2022-08-27T00:22:27;20.30;99.90
20428;DHT22;10373;49.768;18.302;2022-08-27T00:24:53;20.30;99.90
20428;DHT22;10373;49.768;18.302;2022-08-27T00:27:19;20.30;99.90
20428;DHT22;10373;49.768;18.302;2022-08-27T00:29:46;20.30;99.90
20428;DHT22;10373;49.768;18.302;2022-08-27T00:32:13;20.30;99.90
20428;DHT22;10373;49.768;18.302;2022-08-27T00:34:39;20.20;99.90
20428;DHT22;10373;49.768;18.302;2022-08-27T00:37:06;20.20;99.90
20428;DHT22;10373;49.768;18.302;2022-08-27T00:39:33;20.20;99.90
20428;DHT22;10373;49.768;18.302;2022-08-27T00:41:59;20.10;99.90
20428;DHT22;10373;49.768;18.302;2022-08-27T00:44:26;20.10;99.90
20428;DHT22;10373;49.768;18.302;2022-08-27T00:46:56;20.10;99.90
20428;DHT22;10373;49.768;18.302;2022-08-27T00:49:30;20.10;99.90
20428;DHT22;10373;49.768;18.302;2022-08-27T00:52:06;20.00;99.90
20428;DHT22;10373;49.768;18.302;2022-08-27T00:54:33;20.10;99.90
20428;DHT22;10373;49.768;18.302;2022-08-27T00:57:00;20.00;99.90
20428;DHT22;10373;49.768;18.302;2022-08-27T00:59:27;20.00;99.90
20428;DHT22;10373;49.768;18.302;2022-08-27T01:01:59;20.00;99.90
20428;DHT22;10373;49.768;18.302;2022-08-27T01:04:57;20.00;99.90
20428;DHT22;10373;49.768;18.302;2022-08-27T01:07:25;20.00;99.90
20428;DHT22;10373;49.768;18.302;2022-08-27T01:09:54;20.00;99.90
20428;DHT22;10373;49.768;18.302;2022-08-27T01:12:22;20.00;99.90
20428;DHT22;10373;49.768;18.302;2022-08-27T01:14:49;19.90;99.90
20428;DHT22;10373;49.768;18.302;2022-08-27T01:17:15;19.80;99.90
20428;DHT22;10373;49.768;18.302;2022-08-27T01:22:27;19.70;99.90
20428;DHT22;10373;49.768;18.302;2022-08-27T01:24:57;19.70;99.90
20428;DHT22;10373;49.768;18.302;2022-08-27T01:27:27;19.70;99.90
20428;DHT22;10373;49.768;18.302;2022-08-27T01:29:55;19.80;99.90
20428;DHT22;10373;49.768;18.302;2022-08-27T01:32:31;19.80;99.90
20428;DHT22;10373;49.768;18.302;2022-08-27T01:34:58;19.80;99.90
20428;DHT22;10373;49.768;18.302;2022-08-27T01:37:24;19.90;99.90
20428;DHT22;10373;49.768;18.302;2022-08-27T01:39:53;19.90;99.90
20428;DHT22;10373;49.768;18.302;2022-08-27T01:42:23;19.90;99.90
20428;DHT22;10373;49.768;18.302;2022-08-27T01:47:20;19.80;99.90
20428;DHT22;10373;49.768;18.302;2022-08-27T01:49:47;19.80;99.90
20428;DHT22;10373;49.768;18.302;2022-08-27T01:52:15;19.90;99.90
20428;DHT22;10373;49.768;18.302;2022-08-27T01:54:41;19.80;99.90
20428;DHT22;10373;49.768;18.302;2022-08-27T01:57:07;19.60;99.90
20428;DHT22;10373;49.768;18.302;2022-08-27T01:59:34;19.60;99.90
20428;DHT22;10373;49.768;18.302;2022-08-27T02:02:01;19.70;99.90
20428;DHT22;10373;49.768;18.302;2022-08-27T02:04:28;19.70;99.90
20428;DHT22;10373;49.768;18.302;2022-08-27T02:06:56;19.70;99.90
20428;DHT22;10373;49.768;18.302;2022-08-27T02:09:22;19.80;99.90
20428;DHT22;10373;49.768;18.302;2022-08-27T02:11:48;19.70;99.90
20428;DHT22;10373;49.768;18.302;2022-08-27T02:14:14;19.70;99.90
20428;DHT22;10373;49.768;18.302;2022-08-27T02:16:40;19.60;99.90
20428;DHT22;10373;49.768;18.302;2022-08-27T02:19:07;19.60;99.90
20428;DHT22;10373;49.768;18.302;2022-08-27T02:21:33;19.60;99.90
20428;DHT22;10373;49.768;18.302;2022-08-27T02:23:59;19.60;99.90
20428;DHT22;10373;49.768;18.302;2022-08-27T02:26:26;19.60;99.90
20428;DHT22;10373;49.768;18.302;2022-08-27T02:28:53;19.60;99.90
20428;DHT22;10373;49.768;18.302;2022-08-27T02:31:20;19.60;99.90
20428;DHT22;10373;49.768;18.302;2022-08-27T02:33:46;19.60;99.90
20428;DHT22;10373;49.768;18.302;2022-08-27T02:36:13;19.60;99.90
20428;DHT22;10373;49.768;18.302;2022-08-27T02:38:40;19.50;99.90
20428;DHT22;10373;49.768;18.302;2022-08-27T02:41:06;19.40;99.90
20428;DHT22;10373;49.768;18.302;2022-08-27T02:43:32;19.40;99.90
20428;DHT22;10373;49.768;18.302;2022-08-27T02:45:58;19.40;99.90
20428;DHT22;10373;49.768;18.302;2022-08-27T02:48:26;19.40;99.90
20428;DHT22;10373;49.768;18.302;2022-08-27T02:50:51;19.40;99.90
20428;DHT22;10373;49.768;18.302;2022-08-27T02:53:17;19.40;99.90
20428;DHT22;10373;49.768;18.302;2022-08-27T02:55:44;19.40;99.90
20428;DHT22;10373;49.768;18.302;2022-08-27T02:58:09;19.50;99.90
20428;DHT22;10373;49.768;18.302;2022-08-27T03:00:37;19.40;99.90
20428;DHT22;10373;49.768;18.302;2022-08-27T03:03:03;19.40;99.90
20428;DHT22;10373;49.768;18.302;2022-08-27T03:05:29;19.40;99.90
20428;DHT22;10373;49.768;18.302;2022-08-27T03:07:54;19.40;99.90
20428;DHT22;10373;49.768;18.302;2022-08-27T03:10:20;19.40;99.90
20428;DHT22;10373;49.768;18.302;2022-08-27T03:12:47;19.20;99.90
20428;DHT22;10373;49.768;18.302;2022-08-27T03:15:16;19.00;99.90
20428;DHT22;10373;49.768;18.302;2022-08-27T03:17:42;19.10;99.90
20428;DHT22;10373;49.768;18.302;2022-08-27T03:20:26;19.10;99.90
20428;DHT22;10373;49.768;18.302;2022-08-27T03:22:52;19.20;99.90
20428;DHT22;10373;49.768;18.302;2022-08-27T03:25:18;19.10;99.90
20428;DHT22;10373;49.768;18.302;2022-08-27T03:27:44;19.10;99.90
20428;DHT22;10373;49.768;18.302;2022-08-27T03:30:14;19.10;99.90
20428;DHT22;10373;49.768;18.302;2022-08-27T03:32:43;19.20;99.90
20428;DHT22;10373;49.768;18.302;2022-08-27T03:35:09;19.20;99.90
20428;DHT22;10373;49.768;18.302;2022-08-27T03:37:36;19.20;99.90
20428;DHT22;10373;49.768;18.302;2022-08-27T03:40:02;19.20;99.90
20428;DHT22;10373;49.768;18.302;2022-08-27T03:42:29;19.10;99.90
20428;DHT22;10373;49.768;18.302;2022-08-27T03:44:54;19.20;99.90
20428;DHT22;10373;49.768;18.302;2022-08-27T03:47:20;19.20;99.90
20428;DHT22;10373;49.768;18.302;2022-08-27T03:49:48;19.20;99.90
20428;DHT22;10373;49.768;18.302;2022-08-27T03:52:14;19.20;99.90
20428;DHT22;10373;49.768;18.302;2022-08-27T03:54:40;19.20;99.90
20428;DHT22;10373;49.768;18.302;2022-08-27T03:57:06;19.20;99.90
20428;DHT22;10373;49.768;18.302;2022-08-27T03:59:32;19.20;99.90
20428;DHT22;10373;49.768;18.302;2022-08-27T04:01:58;19.20;99.90
20428;DHT22;10373;49.768;18.302;2022-08-27T04:04:24;19.20;99.90
20428;DHT22;10373;49.768;18.302;2022-08-27T04:06:50;19.20;99.90
20428;DHT22;10373;49.768;18.302;2022-08-27T04:09:17;19.20;99.90
20428;DHT22;10373;49.768;18.302;2022-08-27T04:11:43;19.20;99.90
20428;DHT22;10373;49.768;18.302;2022-08-27T04:14:09;19.20;99.90
20428;DHT22;10373;49.768;18.302;2022-08-27T04:16:35;19.20;99.90
20428;DHT22;10373;49.768;18.302;2022-08-27T04:19:04;19.30;99.90
20428;DHT22;10373;49.768;18.302;2022-08-27T04:21:30;19.30;99.90
20428;DHT22;10373;49.768;18.302;2022-08-27T04:23:57;19.20;99.90
20428;DHT22;10373;49.768;18.302;2022-08-27T04:26:23;19.10;99.90
20428;DHT22;10373;49.768;18.302;2022-08-27T04:28:49;19.10;99.90
20428;DHT22;10373;49.768;18.302;2022-08-27T04:31:15;19.10;99.90
20428;DHT22;10373;49.768;18.302;2022-08-27T04:33:41;19.10;99.90
20428;DHT22;10373;49.768;18.302;2022-08-27T04:36:09;19.10;99.90
20428;DHT22;10373;49.768;18.302;2022-08-27T04:38:35;19.10;99.90
20428;DHT22;10373;49.768;18.302;2022-08-27T04:41:03;19.20;99.90
20428;DHT22;10373;49.768;18.302;2022-08-27T04:43:45;19.20;99.90
20428;DHT22;10373;49.768;18.302;2022-08-27T04:46:11;19.30;99.90
20428;DHT22;10373;49.768;18.302;2022-08-27T04:48:37;19.50;99.90
20428;DHT22;10373;49.768;18.302;2022-08-27T04:51:03;19.50;99.90
20428;DHT22;10373;49.768;18.302;2022-08-27T04:53:29;19.60;99.90
20428;DHT22;10373;49.768;18.302;2022-08-27T04:55:55;19.60;99.90
20428;DHT22;10373;49.768;18.302;2022-08-27T04:58:22;19.60;99.90
20428;DHT22;10373;49.768;18.302;2022-08-27T05:00:53;19.60;99.90
20428;DHT22;10373;49.768;18.302;2022-08-27T05:03:23;19.60;99.90
20428;DHT22;10373;49.768;18.302;2022-08-27T05:05:51;19.70;99.90
20428;DHT22;10373;49.768;18.302;2022-08-27T05:08:18;19.80;99.90
20428;DHT22;10373;49.768;18.302;2022-08-27T05:10:50;19.90;99.90
20428;DHT22;10373;49.768;18.302;2022-08-27T05:13:20;19.90;99.90
20428;DHT22;10373;49.768;18.302;2022-08-27T05:15:49;20.00;99.90
20428;DHT22;10373;49.768;18.302;2022-08-27T05:18:15;20.10;99.90
20428;DHT22;10373;49.768;18.302;2022-08-27T05:20:46;20.20;99.90
20428;DHT22;10373;49.768;18.302;2022-08-27T05:23:15;20.30;99.90
20428;DHT22;10373;49.768;18.302;2022-08-27T05:25:45;20.40;99.90
20428;DHT22;10373;49.768;18.302;2022-08-27T05:28:12;20.40;99.90
20428;DHT22;10373;49.768;18.302;2022-08-27T05:30:42;20.60;99.90
20428;DHT22;10373;49.768;18.302;2022-08-27T05:33:11;20.60;99.90
20428;DHT22;10373;49.768;18.302;2022-08-27T05:35:46;20.50;99.90
20428;DHT22;10373;49.768;18.302;2022-08-27T05:38:12;20.50;99.90
20428;DHT22;10373;49.768;18.302;2022-08-27T05:40:38;20.50;99.90
20428;DHT22;10373;49.768;18.302;2022-08-27T05:43:05;20.50;99.90
20428;DHT22;10373;49.768;18.302;2022-08-27T05:45:32;20.60;99.90
20428;DHT22;10373;49.768;18.302;2022-08-27T05:47:58;20.70;99.90
20428;DHT22;10373;49.768;18.302;2022-08-27T05:50:25;20.70;99.90
20428;DHT22;10373;49.768;18.302;2022-08-27T05:52:51;20.80;99.90
20428;DHT22;10373;49.768;18.302;2022-08-27T05:55:18;20.90;99.90
20428;DHT22;10373;49.768;18.302;2022-08-27T05:57:44;21.00;99.90
20428;DHT22;10373;49.768;18.302;2022-08-27T06:00:11;21.10;99.90
20428;DHT22;10373;49.768;18.302;2022-08-27T06:02:55;21.20;99.90
20428;DHT22;10373;49.768;18.302;2022-08-27T06:05:21;21.40;99.90
20428;DHT22;10373;49.768;18.302;2022-08-27T06:07:47;21.60;99.90
20428;DHT22;10373;49.768;18.302;2022-08-27T06:10:13;21.70;99.90
20428;DHT22;10373;49.768;18.302;2022-08-27T06:12:40;21.90;99.90
20428;DHT22;10373;49.768;18.302;2022-08-27T06:15:06;22.10;99.90
20428;DHT22;10373;49.768;18.302;2022-08-27T06:17:32;22.20;99.90
20428;DHT22;10373;49.768;18.302;2022-08-27T06:19:59;22.40;99.90
20428;DHT22;10373;49.768;18.302;2022-08-27T06:22:25;22.40;99.90
20428;DHT22;10373;49.768;18.302;2022-08-27T06:24:50;22.60;99.90
20428;DHT22;10373;49.768;18.302;2022-08-27T06:27:17;22.60;99.90
20428;DHT22;10373;49.768;18.302;2022-08-27T06:29:44;22.70;99.90
20428;DHT22;10373;49.768;18.302;2022-08-27T06:32:11;22.80;99.90
20428;DHT22;10373;49.768;18.302;2022-08-27T06:34:38;22.90;99.90
20428;DHT22;10373;49.768;18.302;2022-08-27T06:37:04;22.90;99.90
20428;DHT22;10373;49.768;18.302;2022-08-27T06:39:30;22.90;99.90
20428;DHT22;10373;49.768;18.302;2022-08-27T06:41:56;22.90;99.90
20428;DHT22;10373;49.768;18.302;2022-08-27T06:44:22;23.00;99.90
20428;DHT22;10373;49.768;18.302;2022-08-27T06:46:49;23.00;99.90
20428;DHT22;10373;49.768;18.302;2022-08-27T06:49:15;22.90;99.90
20428;DHT22;10373;49.768;18.302;2022-08-27T06:51:44;22.90;99.90
20428;DHT22;10373;49.768;18.302;2022-08-27T06:54:12;22.90;99.90
20428;DHT22;10373;49.768;18.302;2022-08-27T06:56:39;22.90;99.90
20428;DHT22;10373;49.768;18.302;2022-08-27T06:59:07;22.90;99.90
20428;DHT22;10373;49.768;18.302;2022-08-27T07:01:36;23.00;99.90
20428;DHT22;10373;49.768;18.302;2022-08-27T07:04:06;23.20;99.90
20428;DHT22;10373;49.768;18.302;2022-08-27T07:06:33;23.30;99.90
20428;DHT22;10373;49.768;18.302;2022-08-27T07:09:04;23.50;99.90
20428;DHT22;10373;49.768;18.302;2022-08-27T07:11:55;23.70;99.90
20428;DHT22;10373;49.768;18.302;2022-08-27T07:14:38;24.00;98.60
20428;DHT22;10373;49.768;18.302;2022-08-27T07:17:13;24.10;97.30
20428;DHT22;10373;49.768;18.302;2022-08-27T07:19:54;24.00;97.60
20428;DHT22;10373;49.768;18.302;2022-08-27T07:22:28;24.10;97.90
20428;DHT22;10373;49.768;18.302;2022-08-27T07:24:54;24.00;98.90
20428;DHT22;10373;49.768;18.302;2022-08-27T07:27:20;24.00;99.90
20428;DHT22;10373;49.768;18.302;2022-08-27T07:29:50;24.10;99.90
20428;DHT22;10373;49.768;18.302;2022-08-27T07:32:17;24.20;99.90
20428;DHT22;10373;49.768;18.302;2022-08-27T07:34:46;24.20;98.80
20428;DHT22;10373;49.768;18.302;2022-08-27T07:37:21;24.10;98.80
20428;DHT22;10373;49.768;18.302;2022-08-27T07:39:53;24.20;99.90
20428;DHT22;10373;49.768;18.302;2022-08-27T07:42:30;24.30;99.00
20428;DHT22;10373;49.768;18.302;2022-08-27T07:45:15;24.40;99.90
20428;DHT22;10373;49.768;18.302;2022-08-27T07:47:40;24.60;99.90
20428;DHT22;10373;49.768;18.302;2022-08-27T07:50:07;24.70;97.50
20428;DHT22;10373;49.768;18.302;2022-08-27T07:52:33;24.80;95.30
20428;DHT22;10373;49.768;18.302;2022-08-27T07:54:59;24.90;95.80
20428;DHT22;10373;49.768;18.302;2022-08-27T07:57:24;25.10;95.40
20428;DHT22;10373;49.768;18.302;2022-08-27T07:59:55;25.10;92.30
20428;DHT22;10373;49.768;18.302;2022-08-27T08:02:21;25.10;92.70
20428;DHT22;10373;49.768;18.302;2022-08-27T08:04:46;25.00;91.30
20428;DHT22;10373;49.768;18.302;2022-08-27T08:07:12;24.90;92.80
20428;DHT22;10373;49.768;18.302;2022-08-27T08:09:38;24.90;91.70
20428;DHT22;10373;49.768;18.302;2022-08-27T08:12:03;24.90;91.40
20428;DHT22;10373;49.768;18.302;2022-08-27T08:14:30;25.10;90.90
20428;DHT22;10373;49.768;18.302;2022-08-27T08:17:03;25.30;91.00
20428;DHT22;10373;49.768;18.302;2022-08-27T08:19:32;25.40;89.70
20428;DHT22;10373;49.768;18.302;2022-08-27T08:21:58;25.60;87.80
20428;DHT22;10373;49.768;18.302;2022-08-27T08:24:24;25.70;86.70
20428;DHT22;10373;49.768;18.302;2022-08-27T08:26:50;25.80;88.10
20428;DHT22;10373;49.768;18.302;2022-08-27T08:29:15;25.90;86.60
20428;DHT22;10373;49.768;18.302;2022-08-27T08:31:41;26.00;85.00
20428;DHT22;10373;49.768;18.302;2022-08-27T08:34:07;26.00;80.60
20428;DHT22;10373;49.768;18.302;2022-08-27T08:36:34;26.20;80.50
20428;DHT22;10373;49.768;18.302;2022-08-27T08:39:00;26.40;77.00
20428;DHT22;10373;49.768;18.302;2022-08-27T08:42:05;26.70;78.00
20428;DHT22;10373;49.768;18.302;2022-08-27T08:44:45;27.10;77.10
20428;DHT22;10373;49.768;18.302;2022-08-27T08:47:21;27.40;77.40
20428;DHT22;10373;49.768;18.302;2022-08-27T08:53:00;26.90;74.80
20428;DHT22;10373;49.768;18.302;2022-08-27T08:55:52;27.00;74.10
20428;DHT22;10373;49.768;18.302;2022-08-27T08:58:38;27.00;72.70
20428;DHT22;10373;49.768;18.302;2022-08-27T09:01:07;27.10;72.10
20428;DHT22;10373;49.768;18.302;2022-08-27T09:03:37;27.20;73.20
20428;DHT22;10373;49.768;18.302;2022-08-27T09:06:06;27.20;72.10
20428;DHT22;10373;49.768;18.302;2022-08-27T09:08:40;27.10;71.30
20428;DHT22;10373;49.768;18.302;2022-08-27T09:11:33;27.00;70.00
20428;DHT22;10373;49.768;18.302;2022-08-27T09:14:07;26.90;68.70
20428;DHT22;10373;49.768;18.302;2022-08-27T09:16:37;26.80;69.90
20428;DHT22;10373;49.768;18.302;2022-08-27T09:19:05;26.70;69.00
20428;DHT22;10373;49.768;18.302;2022-08-27T09:27:04;26.20;73.10
20428;DHT22;10373;49.768;18.302;2022-08-27T09:29:30;26.20;73.50
20428;DHT22;10373;49.768;18.302;2022-08-27T09:32:04;26.20;73.20
20428;DHT22;10373;49.768;18.302;2022-08-27T09:34:36;26.40;73.20
20428;DHT22;10373;49.768;18.302;2022-08-27T09:37:11;26.50;74.30
20428;DHT22;10373;49.768;18.302;2022-08-27T09:39:56;26.60;74.10
20428;DHT22;10373;49.768;18.302;2022-08-27T09:44:56;26.60;71.00
20428;DHT22;10373;49.768;18.302;2022-08-27T09:47:22;26.70;69.20
20428;DHT22;10373;49.768;18.302;2022-08-27T09:49:48;26.80;69.70
20428;DHT22;10373;49.768;18.302;2022-08-27T09:52:34;26.80;69.40
20428;DHT22;10373;49.768;18.302;2022-08-27T09:55:04;26.60;70.00
20428;DHT22;10373;49.768;18.302;2022-08-27T09:57:38;26.60;71.00
20428;DHT22;10373;49.768;18.302;2022-08-27T10:00:16;26.50;69.60
20428;DHT22;10373;49.768;18.302;2022-08-27T10:02:52;26.30;70.40
20428;DHT22;10373;49.768;18.302;2022-08-27T10:05:35;26.20;73.90
20428;DHT22;10373;49.768;18.302;2022-08-27T10:08:06;26.10;76.60
20428;DHT22;10373;49.768;18.302;2022-08-27T10:10:38;26.10;78.50
20428;DHT22;10373;49.768;18.302;2022-08-27T10:13:13;26.10;79.00
20428;DHT22;10373;49.768;18.302;2022-08-27T10:21:07;26.30;74.50
20428;DHT22;10373;49.768;18.302;2022-08-27T10:26:33;26.80;71.50
20428;DHT22;10373;49.768;18.302;2022-08-27T10:34:37;27.20;68.60
20428;DHT22;10373;49.768;18.302;2022-08-27T10:56:46;28.20;65.20
20428;DHT22;10373;49.768;18.302;2022-08-27T10:59:46;28.30;64.40
20428;DHT22;10373;49.768;18.302;2022-08-27T11:02:44;28.30;63.60
20428;DHT22;10373;49.768;18.302;2022-08-27T11:05:27;28.30;64.30
20428;DHT22;10373;49.768;18.302;2022-08-27T11:11:10;28.10;64.20
20428;DHT22;10373;49.768;18.302;2022-08-27T11:13:43;27.90;65.20
20428;DHT22;10373;49.768;18.302;2022-08-27T11:18:49;27.60;66.20
20428;DHT22;10373;49.768;18.302;2022-08-27T11:21:28;27.50;67.80
20428;DHT22;10373;49.768;18.302;2022-08-27T11:24:09;27.30;68.90
20428;DHT22;10373;49.768;18.302;2022-08-27T11:26:37;27.00;68.60
20428;DHT22;10373;49.768;18.302;2022-08-27T11:29:14;26.80;71.10
20428;DHT22;10373;49.768;18.302;2022-08-27T11:34:45;26.60;73.20
20428;DHT22;10373;49.768;18.302;2022-08-27T11:37:38;26.60;76.20
20428;DHT22;10373;49.768;18.302;2022-08-27T11:43:06;26.40;79.10
20428;DHT22;10373;49.768;18.302;2022-08-27T11:45:35;26.50;79.80
20428;DHT22;10373;49.768;18.302;2022-08-27T11:48:24;26.60;78.40
20428;DHT22;10373;49.768;18.302;2022-08-27T11:50:55;26.70;76.30
20428;DHT22;10373;49.768;18.302;2022-08-27T11:53:27;26.70;76.00
20428;DHT22;10373;49.768;18.302;2022-08-27T11:55:53;26.70;77.20
20428;DHT22;10373;49.768;18.302;2022-08-27T12:00:47;26.50;80.40
20428;DHT22;10373;49.768;18.302;2022-08-27T12:05:46;26.10;86.20
20428;DHT22;10373;49.768;18.302;2022-08-27T12:21:47;25.50;95.10
20428;DHT22;10373;49.768;18.302;2022-08-27T12:27:23;25.50;94.60
20428;DHT22;10373;49.768;18.302;2022-08-27T12:29:58;25.60;96.70
20428;DHT22;10373;49.768;18.302;2022-08-27T12:37:42;26.00;94.70
20428;DHT22;10373;49.768;18.302;2022-08-27T12:40:24;26.30;92.90
20428;DHT22;10373;49.768;18.302;2022-08-27T12:42:51;26.60;91.70
20428;DHT22;10373;49.768;18.302;2022-08-27T12:45:28;26.80;88.20
20428;DHT22;10373;49.768;18.302;2022-08-27T12:47:56;27.10;86.50
20428;DHT22;10373;49.768;18.302;2022-08-27T12:50:27;27.50;85.20
20428;DHT22;10373;49.768;18.302;2022-08-27T13:03:43;28.30;74.30
20428;DHT22;10373;49.768;18.302;2022-08-27T13:06:32;28.50;72.70
20428;DHT22;10373;49.768;18.302;2022-08-27T13:09:04;28.80;68.30
20428;DHT22;10373;49.768;18.302;2022-08-27T13:11:45;28.90;66.20
20428;DHT22;10373;49.768;18.302;2022-08-27T13:14:21;28.80;63.90
20428;DHT22;10373;49.768;18.302;2022-08-27T13:16:58;28.90;64.70
20428;DHT22;10373;49.768;18.302;2022-08-27T13:19:35;28.90;63.60
20428;DHT22;10373;49.768;18.302;2022-08-27T13:22:02;28.80;62.00
20428;DHT22;10373;49.768;18.302;2022-08-27T13:24:30;28.70;61.00
20428;DHT22;10373;49.768;18.302;2022-08-27T13:26:57;28.60;59.90
20428;DHT22;10373;49.768;18.302;2022-08-27T13:29:24;28.50;60.30
20428;DHT22;10373;49.768;18.302;2022-08-27T13:31:51;28.50;61.10
20428;DHT22;10373;49.768;18.302;2022-08-27T13:34:20;28.60;59.90
20428;DHT22;10373;49.768;18.302;2022-08-27T13:37:00;28.60;61.00
20428;DHT22;10373;49.768;18.302;2022-08-27T13:39:29;28.90;60.40
20428;DHT22;10373;49.768;18.302;2022-08-27T13:41:58;29.00;60.40
20428;DHT22;10373;49.768;18.302;2022-08-27T13:44:34;29.20;60.20
20428;DHT22;10373;49.768;18.302;2022-08-27T13:47:04;29.60;60.20
20428;DHT22;10373;49.768;18.302;2022-08-27T13:49:33;29.70;58.50
20428;DHT22;10373;49.768;18.302;2022-08-27T13:54:34;30.40;58.70
20428;DHT22;10373;49.768;18.302;2022-08-27T13:57:07;30.40;58.10
20428;DHT22;10373;49.768;18.302;2022-08-27T13:59:37;30.60;58.00
20428;DHT22;10373;49.768;18.302;2022-08-27T14:07:09;30.50;57.80
20428;DHT22;10373;49.768;18.302;2022-08-27T14:09:49;30.40;57.70
20428;DHT22;10373;49.768;18.302;2022-08-27T14:12:32;30.20;58.30
20428;DHT22;10373;49.768;18.302;2022-08-27T14:17:40;29.40;59.00
20428;DHT22;10373;49.768;18.302;2022-08-27T14:20:07;29.10;59.70
20428;DHT22;10373;49.768;18.302;2022-08-27T14:22:32;29.00;60.20
20428;DHT22;10373;49.768;18.302;2022-08-27T14:25:01;29.00;59.40
20428;DHT22;10373;49.768;18.302;2022-08-27T14:27:27;28.80;58.90
20428;DHT22;10373;49.768;18.302;2022-08-27T14:29:53;28.70;59.90
20428;DHT22;10373;49.768;18.302;2022-08-27T14:32:19;28.60;59.40
20428;DHT22;10373;49.768;18.302;2022-08-27T14:34:46;28.60;60.80
20428;DHT22;10373;49.768;18.302;2022-08-27T14:37:13;28.60;60.40
20428;DHT22;10373;49.768;18.302;2022-08-27T14:39:40;28.50;59.90
20428;DHT22;10373;49.768;18.302;2022-08-27T14:42:10;28.50;59.40
20428;DHT22;10373;49.768;18.302;2022-08-27T14:44:36;28.50;59.10
20428;DHT22;10373;49.768;18.302;2022-08-27T14:47:03;28.50;59.70
20428;DHT22;10373;49.768;18.302;2022-08-27T14:49:33;28.40;60.30
20428;DHT22;10373;49.768;18.302;2022-08-27T14:52:02;28.30;60.70
20428;DHT22;10373;49.768;18.302;2022-08-27T14:54:28;28.20;59.80
20428;DHT22;10373;49.768;18.302;2022-08-27T14:56:54;28.10;59.90
20428;DHT22;10373;49.768;18.302;2022-08-27T14:59:20;27.90;59.50
20428;DHT22;10373;49.768;18.302;2022-08-27T15:01:47;27.70;59.80
20428;DHT22;10373;49.768;18.302;2022-08-27T15:04:13;27.60;60.00
20428;DHT22;10373;49.768;18.302;2022-08-27T15:06:39;27.30;60.70
20428;DHT22;10373;49.768;18.302;2022-08-27T15:09:05;27.30;61.70
20428;DHT22;10373;49.768;18.302;2022-08-27T15:11:33;27.30;62.30
20428;DHT22;10373;49.768;18.302;2022-08-27T15:14:02;27.20;61.40
20428;DHT22;10373;49.768;18.302;2022-08-27T15:18:59;27.20;63.10
20428;DHT22;10373;49.768;18.302;2022-08-27T15:21:26;27.20;62.80
20428;DHT22;10373;49.768;18.302;2022-08-27T15:24:00;27.20;62.80
20428;DHT22;10373;49.768;18.302;2022-08-27T15:26:27;27.10;61.90
20428;DHT22;10373;49.768;18.302;2022-08-27T15:28:53;27.10;62.60
20428;DHT22;10373;49.768;18.302;2022-08-27T15:31:19;27.10;62.60
20428;DHT22;10373;49.768;18.302;2022-08-27T15:33:45;27.00;62.30
20428;DHT22;10373;49.768;18.302;2022-08-27T15:36:11;27.10;63.30
20428;DHT22;10373;49.768;18.302;2022-08-27T15:38:38;27.10;62.70
20428;DHT22;10373;49.768;18.302;2022-08-27T15:41:03;27.10;63.60
20428;DHT22;10373;49.768;18.302;2022-08-27T15:43:29;27.10;63.40
20428;DHT22;10373;49.768;18.302;2022-08-27T15:45:55;27.20;63.40
20428;DHT22;10373;49.768;18.302;2022-08-27T15:48:21;27.20;63.20
20428;DHT22;10373;49.768;18.302;2022-08-27T15:50:47;27.20;63.70
20428;DHT22;10373;49.768;18.302;2022-08-27T15:53:13;27.30;62.70
20428;DHT22;10373;49.768;18.302;2022-08-27T15:55:41;27.30;62.50
20428;DHT22;10373;49.768;18.302;2022-08-27T15:58:08;27.30;63.50
20428;DHT22;10373;49.768;18.302;2022-08-27T16:00:35;27.30;64.50
20428;DHT22;10373;49.768;18.302;2022-08-27T16:03:08;27.20;63.90
20428;DHT22;10373;49.768;18.302;2022-08-27T16:05:37;27.10;64.30
20428;DHT22;10373;49.768;18.302;2022-08-27T16:08:04;27.10;65.00
20428;DHT22;10373;49.768;18.302;2022-08-27T16:10:30;27.00;64.70
20428;DHT22;10373;49.768;18.302;2022-08-27T16:13:01;27.00;65.30
20428;DHT22;10373;49.768;18.302;2022-08-27T16:15:32;26.90;65.50
20428;DHT22;10373;49.768;18.302;2022-08-27T16:18:00;26.90;65.90
20428;DHT22;10373;49.768;18.302;2022-08-27T16:20:29;26.80;67.10
20428;DHT22;10373;49.768;18.302;2022-08-27T16:22:55;26.70;67.60
20428;DHT22;10373;49.768;18.302;2022-08-27T16:25:20;26.60;67.60
20428;DHT22;10373;49.768;18.302;2022-08-27T16:27:48;26.40;68.20
20428;DHT22;10373;49.768;18.302;2022-08-27T16:30:14;26.30;69.40
20428;DHT22;10373;49.768;18.302;2022-08-27T16:32:42;26.20;70.10
20428;DHT22;10373;49.768;18.302;2022-08-27T16:35:08;26.20;71.40
20428;DHT22;10373;49.768;18.302;2022-08-27T16:37:34;26.10;71.90
20428;DHT22;10373;49.768;18.302;2022-08-27T16:40:00;26.00;75.90
20428;DHT22;10373;49.768;18.302;2022-08-27T16:42:26;26.00;78.20
20428;DHT22;10373;49.768;18.302;2022-08-27T16:44:51;25.90;78.30
20428;DHT22;10373;49.768;18.302;2022-08-27T16:47:17;25.70;78.90
20428;DHT22;10373;49.768;18.302;2022-08-27T16:49:43;25.60;81.80
20428;DHT22;10373;49.768;18.302;2022-08-27T16:52:28;25.50;84.50
20428;DHT22;10373;49.768;18.302;2022-08-27T16:54:55;25.30;88.60
20428;DHT22;10373;49.768;18.302;2022-08-27T16:57:21;25.20;90.60
20428;DHT22;10373;49.768;18.302;2022-08-27T16:59:46;25.10;92.30
20428;DHT22;10373;49.768;18.302;2022-08-27T17:02:18;24.90;94.00
20428;DHT22;10373;49.768;18.302;2022-08-27T17:04:46;24.90;95.30
20428;DHT22;10373;49.768;18.302;2022-08-27T17:07:12;24.80;96.70
20428;DHT22;10373;49.768;18.302;2022-08-27T17:09:37;24.70;97.70
20428;DHT22;10373;49.768;18.302;2022-08-27T17:12:03;24.60;98.60
20428;DHT22;10373;49.768;18.302;2022-08-27T17:14:32;24.50;97.90
20428;DHT22;10373;49.768;18.302;2022-08-27T17:16:59;24.40;98.90
20428;DHT22;10373;49.768;18.302;2022-08-27T17:19:25;24.30;99.50